createdAt,value
2023-02-06T00:00:13.110Z,66
2023-02-06T00:01:25.335Z,66
2023-02-06T00:02:33.599Z,66
2023-02-06T00:03:42.315Z,66
2023-02-06T00:04:50.681Z,66
2023-02-06T00:05:58.676Z,66
2023-02-06T00:07:06.221Z,66
2023-02-06T00:08:14.602Z,66
2023-02-06T00:09:23.789Z,66
2023-02-06T00:10:32.085Z,66
2023-02-06T00:11:40.242Z,66
2023-02-06T00:12:51.847Z,66
2023-02-06T00:13:59.244Z,66
2023-02-06T00:15:09.018Z,66
2023-02-06T00:16:17.570Z,65
2023-02-06T00:17:30.284Z,65
2023-02-06T00:18:42.537Z,66
2023-02-06T00:19:50.136Z,66
2023-02-06T00:20:59.569Z,66
2023-02-06T00:22:09.260Z,66
2023-02-06T00:23:18.387Z,66
2023-02-06T00:24:27.717Z,67
2023-02-06T00:25:38.557Z,67
2023-02-06T00:26:46.768Z,67
2023-02-06T00:28:00.994Z,67
2023-02-06T00:29:02.553Z,67
2023-02-06T00:30:10.913Z,67
2023-02-06T00:31:20.321Z,67
2023-02-06T00:32:31.539Z,67
2023-02-06T00:33:39.894Z,67
2023-02-06T00:34:48.616Z,67
2023-02-06T00:35:59.104Z,67
2023-02-06T00:37:11.548Z,67
2023-02-06T00:38:20.638Z,67
2023-02-06T00:39:29.263Z,67
2023-02-06T00:40:38.084Z,67
2023-02-06T00:41:48.076Z,67
2023-02-06T00:42:57.530Z,67
2023-02-06T00:44:05.880Z,67
2023-02-06T00:45:15.061Z,67
2023-02-06T00:46:24.506Z,67
2023-02-06T00:47:34.977Z,67
2023-02-06T00:48:46.052Z,67
2023-02-06T00:49:55.022Z,67
2023-02-06T00:51:03.531Z,67
2023-02-06T00:52:12.783Z,67
2023-02-06T00:53:21.544Z,67
2023-02-06T00:54:30.069Z,67
2023-02-06T00:55:39.370Z,67
2023-02-06T00:56:48.508Z,67
2023-02-06T00:57:56.275Z,67
2023-02-06T00:59:04.794Z,67
2023-02-06T01:00:12.629Z,67
2023-02-06T01:01:21.858Z,67
2023-02-06T01:02:31.984Z,68
2023-02-06T01:03:40.381Z,68
2023-02-06T01:04:49.339Z,68
2023-02-06T01:05:59.184Z,68
2023-02-06T01:07:09.267Z,68
2023-02-06T01:08:19.335Z,67
2023-02-06T01:09:28.714Z,67
2023-02-06T01:10:37.214Z,68
2023-02-06T01:11:49.668Z,68
2023-02-06T01:12:59.240Z,69
2023-02-06T01:14:06.548Z,69
2023-02-06T01:15:15.030Z,69
2023-02-06T01:16:23.500Z,69
2023-02-06T01:17:31.802Z,68
2023-02-06T01:18:42.268Z,69
2023-02-06T01:19:51.889Z,69
2023-02-06T01:21:01.830Z,69
2023-02-06T01:22:14.094Z,69
2023-02-06T01:23:25.315Z,69
2023-02-06T01:24:34.494Z,70
2023-02-06T01:25:43.632Z,69
2023-02-06T01:26:53.426Z,69
2023-02-06T01:28:03.678Z,69
2023-02-06T01:29:11.717Z,69
2023-02-06T01:30:21.178Z,69
2023-02-06T01:31:29.776Z,69
2023-02-06T01:32:38.228Z,69
2023-02-06T01:33:46.375Z,69
2023-02-06T01:34:57.521Z,69
2023-02-06T01:36:09.345Z,69
2023-02-06T01:37:20.733Z,69
2023-02-06T01:38:29.581Z,69
2023-02-06T01:39:39.511Z,69
2023-02-06T01:40:48.302Z,69
2023-02-06T01:41:56.542Z,70
2023-02-06T01:43:05.359Z,70
2023-02-06T01:44:15.081Z,70
2023-02-06T01:45:23.853Z,70
2023-02-06T01:46:35.385Z,69
2023-02-06T01:47:47.801Z,69
2023-02-06T01:48:56.510Z,69
2023-02-06T01:50:06.763Z,69
2023-02-06T01:51:16.667Z,69
2023-02-06T01:52:26.278Z,69
2023-02-06T01:53:36.560Z,69
2023-02-06T01:54:46.145Z,69
2023-02-06T01:55:55.055Z,69
2023-02-06T01:57:05.204Z,69
2023-02-06T01:58:14.213Z,70
2023-02-06T01:59:24.499Z,70
2023-02-06T02:00:36.135Z,70
2023-02-06T02:01:46.194Z,70
2023-02-06T02:02:54.160Z,70
2023-02-06T02:04:02.213Z,70
2023-02-06T02:05:11.181Z,70
2023-02-06T02:06:20.528Z,70
2023-02-06T02:07:30.470Z,70
2023-02-06T02:08:41.701Z,70
2023-02-06T02:09:50.788Z,71
2023-02-06T02:10:59.350Z,71
2023-02-06T02:12:07.566Z,71
2023-02-06T02:13:16.427Z,71
2023-02-06T02:14:24.940Z,70
2023-02-06T02:15:33.008Z,70
2023-02-06T02:16:45.973Z,70
2023-02-06T02:18:05.455Z,70
2023-02-06T02:19:25.126Z,71
2023-02-06T02:20:44.624Z,71
2023-02-06T02:21:59.502Z,71
2023-02-06T02:23:20.505Z,70
2023-02-06T02:24:35.725Z,70
2023-02-06T02:25:56.166Z,70
2023-02-06T02:27:10.388Z,70
2023-02-06T02:28:23.812Z,71
2023-02-06T02:29:44.276Z,71
2023-02-06T02:31:03.301Z,70
2023-02-06T02:32:13.892Z,70
2023-02-06T02:33:34.408Z,70
2023-02-06T02:34:53.184Z,70
2023-02-06T02:36:04.105Z,70
2023-02-06T02:37:22.005Z,70
2023-02-06T02:38:41.573Z,70
2023-02-06T02:39:55.864Z,70
2023-02-06T02:41:05.342Z,70
2023-02-06T02:42:24.169Z,70
2023-02-06T02:43:32.951Z,70
2023-02-06T02:44:49.096Z,70
2023-02-06T02:46:05.421Z,71
2023-02-06T02:47:13.006Z,71
2023-02-06T02:48:22.399Z,71
2023-02-06T02:49:33.827Z,71
2023-02-06T02:50:45.033Z,71
2023-02-06T02:51:54.245Z,71
2023-02-06T02:53:02.148Z,71
2023-02-06T02:54:09.923Z,71
2023-02-06T02:55:17.334Z,71
2023-02-06T02:56:26.407Z,71
2023-02-06T02:57:36.424Z,71
2023-02-06T02:58:46.739Z,71
2023-02-06T03:00:02.269Z,71
2023-02-06T03:01:10.316Z,71
2023-02-06T03:02:18.975Z,71
2023-02-06T03:03:29.718Z,71
2023-02-06T03:04:37.436Z,71
2023-02-06T03:05:45.906Z,72
2023-02-06T03:06:59.582Z,72
2023-02-06T03:08:17.349Z,71
2023-02-06T03:09:31.622Z,71
2023-02-06T03:10:47.039Z,71
2023-02-06T03:12:00.090Z,71
2023-02-06T03:13:10.106Z,71
2023-02-06T03:14:25.914Z,72
2023-02-06T03:15:40.290Z,72
2023-02-06T03:16:57.538Z,72
2023-02-06T03:18:08.957Z,71
2023-02-06T03:19:17.613Z,72
2023-02-06T03:20:28.577Z,72
2023-02-06T03:21:39.361Z,72
2023-02-06T03:22:48.882Z,72
2023-02-06T03:23:56.250Z,72
2023-02-06T03:25:06.249Z,72
2023-02-06T03:26:15.377Z,73
2023-02-06T03:27:23.815Z,73
2023-02-06T03:28:33.717Z,73
2023-02-06T03:29:46.682Z,73
2023-02-06T03:30:56.315Z,73
2023-02-06T03:32:03.947Z,73
2023-02-06T03:33:16.610Z,73
2023-02-06T03:34:24.191Z,73
2023-02-06T03:35:41.543Z,73
2023-02-06T03:36:49.995Z,73
2023-02-06T03:37:58.377Z,73
2023-02-06T03:39:07.525Z,73
2023-02-06T03:40:18.007Z,74
2023-02-06T03:41:27.496Z,74
2023-02-06T03:42:35.952Z,74
2023-02-06T03:43:45.116Z,74
2023-02-06T03:44:54.483Z,73
2023-02-06T03:46:04.800Z,73
2023-02-06T03:47:13.683Z,73
2023-02-06T03:48:26.021Z,73
2023-02-06T03:49:37.152Z,73
2023-02-06T03:50:46.306Z,72
2023-02-06T03:51:56.618Z,73
2023-02-06T03:53:05.612Z,72
2023-02-06T03:54:14.296Z,72
2023-02-06T03:55:22.852Z,73
2023-02-06T03:56:32.089Z,73
2023-02-06T03:57:44.113Z,73
2023-02-06T03:58:51.562Z,73
2023-02-06T04:00:01.730Z,73
2023-02-06T04:01:11.610Z,73
2023-02-06T04:02:21.065Z,73
2023-02-06T04:03:31.535Z,72
2023-02-06T04:04:41.959Z,72
2023-02-06T04:05:51.053Z,72
2023-02-06T04:07:01.753Z,72
2023-02-06T04:08:18.363Z,73
2023-02-06T04:09:26.452Z,73
2023-02-06T04:10:36.716Z,73
2023-02-06T04:11:44.713Z,73
2023-02-06T04:12:53.160Z,73
2023-02-06T04:14:02.620Z,74
2023-02-06T04:15:11.150Z,74
2023-02-06T04:16:20.336Z,74
2023-02-06T04:17:43.456Z,74
2023-02-06T04:18:38.232Z,74
2023-02-06T04:19:49.354Z,74
2023-02-06T04:20:59.668Z,74
2023-02-06T04:22:11.869Z,74
2023-02-06T04:23:20.964Z,74
2023-02-06T04:24:31.140Z,74
2023-02-06T04:25:40.674Z,74
2023-02-06T04:26:48.386Z,74
2023-02-06T04:27:57.946Z,74
2023-02-06T04:29:09.072Z,74
2023-02-06T04:30:19.640Z,74
2023-02-06T04:31:27.314Z,74
2023-02-06T04:32:36.930Z,74
2023-02-06T04:33:44.824Z,74
2023-02-06T04:34:53.461Z,74
2023-02-06T04:36:03.888Z,74
2023-02-06T04:37:14.233Z,74
2023-02-06T04:38:23.009Z,74
2023-02-06T04:39:33.334Z,74
2023-02-06T04:40:42.410Z,73
2023-02-06T04:41:51.041Z,74
2023-02-06T04:43:01.121Z,74
2023-02-06T04:44:11.315Z,74
2023-02-06T04:45:21.249Z,74
2023-02-06T04:46:29.832Z,74
2023-02-06T04:47:38.883Z,74
2023-02-06T04:48:49.057Z,74
2023-02-06T04:49:58.593Z,74
2023-02-06T04:51:07.996Z,73
2023-02-06T04:52:16.592Z,73
2023-02-06T04:53:26.972Z,73
2023-02-06T04:54:37.623Z,74
2023-02-06T04:55:47.749Z,74
2023-02-06T04:56:57.261Z,74
2023-02-06T04:58:07.295Z,74
2023-02-06T04:59:17.556Z,74
2023-02-06T05:00:25.265Z,73
2023-02-06T05:01:33.679Z,73
2023-02-06T05:02:41.688Z,73
2023-02-06T05:03:50.496Z,73
2023-02-06T05:04:58.557Z,73
2023-02-06T05:06:07.341Z,73
2023-02-06T05:07:16.655Z,73
2023-02-06T05:08:25.025Z,73
2023-02-06T05:09:35.396Z,73
2023-02-06T05:10:44.048Z,73
2023-02-06T05:11:52.734Z,73
2023-02-06T05:13:01.219Z,74
2023-02-06T05:14:10.638Z,74
2023-02-06T05:15:19.392Z,74
2023-02-06T05:16:28.426Z,74
2023-02-06T05:17:37.659Z,74
2023-02-06T05:18:46.989Z,74
2023-02-06T05:19:59.948Z,74
2023-02-06T05:21:08.232Z,74
2023-02-06T05:22:18.540Z,74
2023-02-06T05:23:26.084Z,74
2023-02-06T05:24:35.648Z,74
2023-02-06T05:25:44.668Z,74
2023-02-06T05:26:53.637Z,74
2023-02-06T05:28:03.975Z,74
2023-02-06T05:29:14.668Z,74
2023-02-06T05:30:23.350Z,75
2023-02-06T05:31:32.876Z,74
2023-02-06T05:32:42.076Z,74
2023-02-06T05:33:52.882Z,75
2023-02-06T05:35:02.992Z,75
2023-02-06T05:36:12.422Z,75
2023-02-06T05:37:22.126Z,75
2023-02-06T05:38:32.749Z,75
2023-02-06T05:39:42.209Z,74
2023-02-06T05:40:52.512Z,74
2023-02-06T05:42:03.237Z,74
2023-02-06T05:43:12.338Z,74
2023-02-06T05:44:21.534Z,74
2023-02-06T05:45:35.760Z,74
2023-02-06T05:46:41.490Z,74
2023-02-06T05:47:48.703Z,74
2023-02-06T05:48:58.424Z,74
2023-02-06T05:50:08.274Z,74
2023-02-06T05:51:16.526Z,74
2023-02-06T05:52:26.474Z,73
2023-02-06T05:53:35.562Z,73
2023-02-06T05:54:44.800Z,73
2023-02-06T05:55:52.322Z,73
2023-02-06T05:57:01.853Z,73
2023-02-06T05:58:09.730Z,73
2023-02-06T05:59:18.101Z,73
2023-02-06T06:00:26.230Z,73
2023-02-06T06:01:34.262Z,73
2023-02-06T06:02:42.402Z,73
2023-02-06T06:03:51.233Z,73
2023-02-06T06:05:01.758Z,73
2023-02-06T06:06:09.086Z,73
2023-02-06T06:07:17.499Z,73
2023-02-06T06:08:24.998Z,73
2023-02-06T06:09:33.197Z,73
2023-02-06T06:10:42.099Z,73
2023-02-06T06:11:49.447Z,73
2023-02-06T06:12:56.975Z,73
2023-02-06T06:14:05.276Z,73
2023-02-06T06:15:13.327Z,73
2023-02-06T06:16:22.780Z,73
2023-02-06T06:17:32.031Z,73
2023-02-06T06:18:41.712Z,73
2023-02-06T06:19:51.401Z,73
2023-02-06T06:21:02.347Z,73
2023-02-06T06:22:12.589Z,73
2023-02-06T06:23:22.584Z,73
2023-02-06T06:24:30.042Z,73
2023-02-06T06:25:39.218Z,73
2023-02-06T06:26:48.389Z,73
2023-02-06T06:27:56.314Z,73
2023-02-06T06:29:04.840Z,73
2023-02-06T06:30:13.623Z,74
2023-02-06T06:31:21.660Z,74
2023-02-06T06:32:30.456Z,73
2023-02-06T06:33:38.404Z,73
2023-02-06T06:34:47.355Z,73
2023-02-06T06:35:55.048Z,73
2023-02-06T06:37:04.651Z,73
2023-02-06T06:38:13.199Z,72
2023-02-06T06:39:20.454Z,72
2023-02-06T06:40:28.926Z,72
2023-02-06T06:41:37.179Z,72
2023-02-06T06:42:44.586Z,72
2023-02-06T06:43:53.987Z,71
2023-02-06T06:45:02.313Z,73
2023-02-06T06:46:09.874Z,72
2023-02-06T06:47:17.554Z,71
2023-02-06T06:48:24.765Z,71
2023-02-06T06:49:33.331Z,71
2023-02-06T06:50:42.451Z,71
2023-02-06T06:51:50.111Z,71
2023-02-06T06:52:58.491Z,71
2023-02-06T06:54:07.055Z,71
2023-02-06T06:55:14.803Z,71
2023-02-06T06:56:22.452Z,71
2023-02-06T06:57:35.718Z,71
2023-02-06T06:58:50.589Z,71
2023-02-06T06:59:59.185Z,71
2023-02-06T07:01:07.978Z,70
2023-02-06T07:02:18.662Z,70
2023-02-06T07:03:26.271Z,70
2023-02-06T07:04:36.522Z,70
2023-02-06T07:05:46.347Z,70
2023-02-06T07:06:55.232Z,70
2023-02-06T07:08:04.751Z,71
2023-02-06T07:09:14.023Z,71
2023-02-06T07:10:21.233Z,70
2023-02-06T07:11:30.687Z,70
2023-02-06T07:12:39.283Z,69
2023-02-06T07:13:48.183Z,69
2023-02-06T07:14:57.407Z,69
2023-02-06T07:16:04.905Z,69
2023-02-06T07:17:12.793Z,69
2023-02-06T07:18:20.640Z,69
2023-02-06T07:19:29.319Z,69
2023-02-06T07:20:38.555Z,69
2023-02-06T07:21:49.315Z,68
2023-02-06T07:22:57.110Z,68
2023-02-06T07:24:05.399Z,68
2023-02-06T07:25:13.156Z,68
2023-02-06T07:26:21.832Z,68
2023-02-06T07:27:30.381Z,68
2023-02-06T07:28:38.455Z,68
2023-02-06T07:29:46.288Z,68
2023-02-06T07:30:54.600Z,69
2023-02-06T07:32:05.191Z,69
2023-02-06T07:33:12.385Z,69
2023-02-06T07:34:19.743Z,69
2023-02-06T07:35:31.542Z,69
2023-02-06T07:36:40.182Z,69
2023-02-06T07:37:48.511Z,69
2023-02-06T07:39:00.342Z,69
2023-02-06T07:40:07.572Z,69
2023-02-06T07:41:15.372Z,69
2023-02-06T07:42:24.392Z,69
2023-02-06T07:43:31.546Z,69
2023-02-06T07:44:40.913Z,69
2023-02-06T07:45:50.244Z,69
2023-02-06T07:47:00.024Z,69
2023-02-06T07:48:07.316Z,68
2023-02-06T07:49:15.538Z,68
2023-02-06T07:50:24.199Z,67
2023-02-06T07:51:32.490Z,67
2023-02-06T07:52:42.835Z,67
2023-02-06T07:53:50.309Z,67
2023-02-06T07:54:58.266Z,66
2023-02-06T07:56:05.949Z,66
2023-02-06T07:57:16.819Z,66
2023-02-06T07:58:24.292Z,66
2023-02-06T07:59:32.710Z,66
2023-02-06T08:00:40.730Z,66
2023-02-06T08:01:48.423Z,66
2023-02-06T08:02:56.626Z,65
2023-02-06T08:04:04.794Z,65
2023-02-06T08:05:13.872Z,65
2023-02-06T08:06:24.335Z,65
2023-02-06T08:07:31.704Z,65
2023-02-06T08:08:39.458Z,65
2023-02-06T08:09:47.578Z,65
2023-02-06T08:10:54.780Z,65
2023-02-06T08:12:03.374Z,65
2023-02-06T08:13:11.822Z,65
2023-02-06T08:14:21.900Z,65
2023-02-06T08:15:31.326Z,65
2023-02-06T08:16:39.604Z,65
2023-02-06T08:17:47.282Z,65
2023-02-06T08:18:55.489Z,65
2023-02-06T08:20:03.446Z,65
2023-02-06T08:21:11.114Z,65
2023-02-06T08:22:24.320Z,65
2023-02-06T08:23:32.866Z,65
2023-02-06T08:24:40.226Z,65
2023-02-06T08:25:50.974Z,64
2023-02-06T08:26:59.024Z,64
2023-02-06T08:28:08.598Z,64
2023-02-06T08:29:15.741Z,64
2023-02-06T08:30:24.504Z,64
2023-02-06T08:31:33.642Z,64
2023-02-06T08:32:41.227Z,63
2023-02-06T08:33:49.614Z,63
2023-02-06T08:34:57.782Z,63
2023-02-06T08:36:07.721Z,62
2023-02-06T08:37:16.169Z,62
2023-02-06T08:38:24.326Z,63
2023-02-06T08:39:32.266Z,63
2023-02-06T08:40:41.075Z,63
2023-02-06T08:41:52.280Z,63
2023-02-06T08:43:00.260Z,63
2023-02-06T08:44:09.238Z,62
2023-02-06T08:45:16.879Z,61
2023-02-06T08:46:25.108Z,61
2023-02-06T08:47:33.411Z,62
2023-02-06T08:48:41.747Z,62
2023-02-06T08:49:50.105Z,61
2023-02-06T08:50:57.488Z,61
2023-02-06T08:52:06.373Z,60
2023-02-06T08:53:14.663Z,60
2023-02-06T08:54:23.024Z,59
2023-02-06T08:55:32.119Z,59
2023-02-06T08:56:41.156Z,60
2023-02-06T08:57:48.689Z,59
2023-02-06T08:58:56.528Z,59
2023-02-06T09:00:05.591Z,59
2023-02-06T09:01:14.738Z,59
2023-02-06T09:02:22.513Z,59
2023-02-06T09:03:30.850Z,59
2023-02-06T09:04:41.925Z,59
2023-02-06T09:05:51.549Z,58
2023-02-06T09:07:04.561Z,58
2023-02-06T09:08:13.639Z,58
2023-02-06T09:09:20.870Z,58
2023-02-06T09:10:28.451Z,58
2023-02-06T09:11:36.783Z,59
2023-02-06T09:12:45.442Z,58
2023-02-06T09:13:54.313Z,58
2023-02-06T09:15:04.015Z,58
2023-02-06T09:16:12.512Z,58
2023-02-06T09:17:24.025Z,57
2023-02-06T09:18:32.839Z,57
2023-02-06T09:19:41.634Z,57
2023-02-06T09:20:49.006Z,58
2023-02-06T09:21:56.632Z,58
2023-02-06T09:23:04.737Z,58
2023-02-06T09:24:12.932Z,58
2023-02-06T09:25:21.135Z,58
2023-02-06T09:26:28.757Z,57
2023-02-06T09:27:37.470Z,57
2023-02-06T09:28:45.367Z,58
2023-02-06T09:29:59.156Z,58
2023-02-06T09:31:07.015Z,58
2023-02-06T09:32:15.387Z,58
2023-02-06T09:33:24.415Z,58
2023-02-06T09:34:35.543Z,58
2023-02-06T09:35:45.797Z,57
2023-02-06T09:36:54.088Z,58
2023-02-06T09:38:01.158Z,58
2023-02-06T09:39:08.567Z,58
2023-02-06T09:40:16.566Z,58
2023-02-06T09:41:25.221Z,58
2023-02-06T09:42:38.765Z,57
2023-02-06T09:43:46.288Z,57
2023-02-06T09:44:54.651Z,57
2023-02-06T09:46:05.083Z,57
2023-02-06T09:47:12.624Z,57
2023-02-06T09:48:29.376Z,57
2023-02-06T09:49:38.091Z,57
2023-02-06T09:50:48.196Z,56
2023-02-06T09:52:06.885Z,56
2023-02-06T09:53:24.902Z,56
2023-02-06T09:54:38.463Z,56
2023-02-06T09:55:54.400Z,56
2023-02-06T09:57:04.763Z,55
2023-02-06T09:58:13.113Z,55
2023-02-06T09:59:24.169Z,55
2023-02-06T10:00:39.579Z,55
2023-02-06T10:01:52.955Z,54
2023-02-06T10:03:11.376Z,54
2023-02-06T10:04:24.259Z,54
2023-02-06T10:05:39.384Z,55
2023-02-06T10:06:52.908Z,54
2023-02-06T10:08:03.185Z,54
2023-02-06T10:09:18.365Z,54
2023-02-06T10:10:34.493Z,53
2023-02-06T10:11:46.817Z,53
2023-02-06T10:12:56.788Z,53
2023-02-06T10:14:06.617Z,52
2023-02-06T10:15:20.981Z,52
2023-02-06T10:16:34.579Z,53
2023-02-06T10:17:48.641Z,53
2023-02-06T10:19:01.537Z,53
2023-02-06T10:20:19.510Z,53
2023-02-06T10:21:33.857Z,53
2023-02-06T10:22:44.813Z,53
2023-02-06T10:23:57.357Z,53
2023-02-06T10:25:14.814Z,53
2023-02-06T10:26:32.562Z,55
2023-02-06T10:27:40.153Z,55
2023-02-06T10:28:48.951Z,54
2023-02-06T10:29:59.112Z,53
2023-02-06T10:31:07.414Z,53
2023-02-06T10:32:21.000Z,52
2023-02-06T10:33:37.655Z,53
2023-02-06T10:34:47.517Z,53
2023-02-06T10:35:56.525Z,53
2023-02-06T10:37:13.758Z,52
2023-02-06T10:38:32.847Z,51
2023-02-06T10:39:41.839Z,51
2023-02-06T10:40:57.887Z,52
2023-02-06T10:42:10.444Z,56
2023-02-06T10:43:26.592Z,56
2023-02-06T10:44:40.364Z,57
2023-02-06T10:45:53.352Z,55
2023-02-06T10:47:01.203Z,54
2023-02-06T10:48:09.386Z,53
2023-02-06T10:49:21.572Z,52
2023-02-06T10:50:37.854Z,51
2023-02-06T10:51:48.452Z,51
2023-02-06T10:52:59.675Z,51
2023-02-06T10:54:10.190Z,51
2023-02-06T10:55:18.463Z,51
2023-02-06T10:56:31.548Z,51
2023-02-06T10:57:45.001Z,51
2023-02-06T10:58:52.186Z,52
2023-02-06T11:00:03.770Z,51
2023-02-06T11:01:24.918Z,50
2023-02-06T11:02:21.175Z,51
2023-02-06T11:03:39.871Z,51
2023-02-06T11:04:49.387Z,52
2023-02-06T11:05:57.367Z,52
2023-02-06T11:07:04.797Z,51
2023-02-06T11:08:18.830Z,51
2023-02-06T11:09:32.561Z,52
2023-02-06T11:10:39.755Z,52
2023-02-06T11:11:48.374Z,52
2023-02-06T11:12:54.991Z,52
2023-02-06T11:14:11.718Z,52
2023-02-06T11:15:22.506Z,52
2023-02-06T11:16:34.936Z,51
2023-02-06T11:17:42.041Z,50
2023-02-06T11:18:49.533Z,52
2023-02-06T11:19:56.881Z,52
2023-02-06T11:21:05.200Z,52
2023-02-06T11:22:13.254Z,52
2023-02-06T11:23:21.292Z,52
2023-02-06T11:24:32.649Z,53
2023-02-06T11:25:40.587Z,53
2023-02-06T11:26:47.824Z,53
2023-02-06T11:28:01.821Z,52
2023-02-06T11:29:09.036Z,52
2023-02-06T11:30:25.171Z,52
2023-02-06T11:31:33.240Z,52
2023-02-06T11:33:03.554Z,52
2023-02-06T11:33:57.524Z,51
2023-02-06T11:35:04.965Z,52
2023-02-06T11:36:14.672Z,51
2023-02-06T11:37:31.213Z,51
2023-02-06T11:38:43.611Z,51
2023-02-06T11:40:00.867Z,52
2023-02-06T11:41:26.648Z,52
2023-02-06T11:42:34.819Z,52
2023-02-06T11:43:42.270Z,52
2023-02-06T11:44:50.843Z,52
2023-02-06T11:45:58.461Z,52
2023-02-06T11:47:09.683Z,52
2023-02-06T11:48:28.308Z,52
2023-02-06T11:49:39.744Z,51
2023-02-06T11:50:47.631Z,51
2023-02-06T11:51:56.127Z,51
2023-02-06T11:53:05.470Z,51
2023-02-06T11:54:15.187Z,52
2023-02-06T11:55:26.513Z,52
2023-02-06T11:56:34.790Z,52
2023-02-06T11:57:44.611Z,51
2023-02-06T11:58:52.275Z,51
2023-02-06T12:00:09.343Z,51
2023-02-06T12:01:26.340Z,53
2023-02-06T12:02:34.298Z,53
2023-02-06T12:03:41.927Z,52
2023-02-06T12:04:54.223Z,52
2023-02-06T12:06:07.004Z,52
2023-02-06T12:07:19.141Z,51
2023-02-06T12:08:26.371Z,51
2023-02-06T12:09:34.312Z,51
2023-02-06T12:10:43.318Z,51
2023-02-06T12:11:56.489Z,50
2023-02-06T12:13:09.370Z,50
2023-02-06T12:14:21.501Z,51
2023-02-06T12:15:45.751Z,50
2023-02-06T12:16:45.536Z,51
2023-02-06T12:17:54.071Z,51
2023-02-06T12:19:05.435Z,51
2023-02-06T12:20:12.334Z,52
2023-02-06T12:21:19.951Z,52
2023-02-06T12:22:39.141Z,51
2023-02-06T12:23:48.798Z,51
2023-02-06T12:25:02.039Z,51
2023-02-06T12:26:10.537Z,51
2023-02-06T12:27:20.918Z,52
2023-02-06T12:28:33.757Z,52
2023-02-06T12:29:43.191Z,51
2023-02-06T12:30:52.165Z,50
2023-02-06T12:32:00.801Z,51
2023-02-06T12:33:14.363Z,51
2023-02-06T12:34:25.786Z,51
2023-02-06T12:35:35.457Z,52
2023-02-06T12:36:54.219Z,51
2023-02-06T12:38:07.464Z,51
2023-02-06T12:39:23.081Z,52
2023-02-06T12:40:31.313Z,52
2023-02-06T12:41:38.736Z,52
2023-02-06T12:42:53.361Z,52
2023-02-06T12:44:01.881Z,52
2023-02-06T12:45:15.223Z,51
2023-02-06T12:46:33.901Z,51
2023-02-06T12:47:43.083Z,52
2023-02-06T12:48:51.983Z,52
2023-02-06T12:50:12.196Z,52
2023-02-06T12:51:26.880Z,51
2023-02-06T12:52:36.837Z,51
2023-02-06T12:53:50.110Z,52
2023-02-06T12:55:02.421Z,51
2023-02-06T12:56:20.115Z,52
2023-02-06T12:57:27.335Z,51
2023-02-06T12:58:35.496Z,51
2023-02-06T12:59:57.373Z,51
2023-02-06T13:00:58.471Z,51
2023-02-06T13:02:12.456Z,52
2023-02-06T13:03:30.464Z,52
2023-02-06T13:04:40.643Z,52
2023-02-06T13:05:51.446Z,52
2023-02-06T13:07:06.025Z,52
2023-02-06T13:08:16.012Z,52
2023-02-06T13:09:28.606Z,52
2023-02-06T13:10:37.274Z,52
2023-02-06T13:11:48.054Z,53
2023-02-06T13:12:56.988Z,53
2023-02-06T13:14:04.366Z,53
2023-02-06T13:15:20.238Z,53
2023-02-06T13:16:30.589Z,52
2023-02-06T13:17:41.432Z,52
2023-02-06T13:18:52.837Z,52
2023-02-06T13:20:02.012Z,52
2023-02-06T13:21:15.107Z,52
2023-02-06T13:22:27.085Z,53
2023-02-06T13:23:42.612Z,53
2023-02-06T13:24:56.841Z,52
2023-02-06T13:26:06.013Z,52
2023-02-06T13:27:13.578Z,52
2023-02-06T13:28:29.888Z,52
2023-02-06T13:29:41.098Z,52
2023-02-06T13:30:48.458Z,53
2023-02-06T13:32:05.059Z,52
2023-02-06T13:33:19.301Z,53
2023-02-06T13:34:28.322Z,53
2023-02-06T13:35:38.528Z,54
2023-02-06T13:36:57.173Z,53
2023-02-06T13:38:04.861Z,53
2023-02-06T13:39:20.691Z,53
2023-02-06T13:40:32.438Z,53
2023-02-06T13:41:41.883Z,53
2023-02-06T13:42:49.148Z,53
2023-02-06T13:43:57.940Z,53
2023-02-06T13:45:08.951Z,53
2023-02-06T13:46:28.494Z,53
2023-02-06T13:47:47.350Z,53
2023-02-06T13:49:00.710Z,53
2023-02-06T13:50:19.746Z,53
2023-02-06T13:51:37.614Z,53
2023-02-06T13:52:51.148Z,53
2023-02-06T13:54:04.070Z,54
2023-02-06T13:55:14.905Z,53
2023-02-06T13:56:33.163Z,53
2023-02-06T13:57:49.625Z,53
2023-02-06T13:59:05.289Z,53
2023-02-06T14:00:18.446Z,53
2023-02-06T14:01:27.387Z,53
2023-02-06T14:02:35.077Z,54
2023-02-06T14:03:43.161Z,53
2023-02-06T14:04:51.201Z,53
2023-02-06T14:05:59.377Z,53
2023-02-06T14:07:12.617Z,53
2023-02-06T14:08:30.850Z,53
2023-02-06T14:09:45.655Z,53
2023-02-06T14:11:00.661Z,53
2023-02-06T14:12:13.140Z,53
2023-02-06T14:13:37.256Z,53
2023-02-06T14:14:49.482Z,53
2023-02-06T14:16:09.515Z,54
2023-02-06T14:17:25.721Z,54
2023-02-06T14:18:36.957Z,54
2023-02-06T14:19:45.997Z,54
2023-02-06T14:21:04.905Z,54
2023-02-06T14:22:15.957Z,53
2023-02-06T14:23:31.426Z,54
2023-02-06T14:24:49.502Z,54
2023-02-06T14:26:08.561Z,54
2023-02-06T14:27:26.280Z,54
2023-02-06T14:28:40.322Z,54
2023-02-06T14:29:47.617Z,54
2023-02-06T14:30:57.823Z,54
2023-02-06T14:32:13.971Z,54
2023-02-06T14:33:22.984Z,54
2023-02-06T14:34:38.934Z,54
2023-02-06T14:35:56.890Z,54
2023-02-06T14:37:10.160Z,54
2023-02-06T14:38:27.706Z,54
2023-02-06T14:39:37.027Z,54
2023-02-06T14:40:54.965Z,54
2023-02-06T14:42:02.846Z,54
2023-02-06T14:43:11.052Z,55
2023-02-06T14:44:24.221Z,55
2023-02-06T14:45:38.687Z,56
2023-02-06T14:46:39.425Z,56
2023-02-06T14:47:47.964Z,56
2023-02-06T14:48:56.595Z,56
2023-02-06T14:50:03.863Z,56
2023-02-06T14:51:13.008Z,56
2023-02-06T14:52:33.454Z,56
2023-02-06T14:53:42.492Z,55
2023-02-06T14:54:50.436Z,55
2023-02-06T14:56:00.389Z,55
2023-02-06T14:57:14.189Z,55
2023-02-06T14:58:27.789Z,55
2023-02-06T14:59:41.966Z,55
2023-02-06T15:01:04.472Z,55
2023-02-06T15:02:15.185Z,55
2023-02-06T15:03:28.371Z,55
2023-02-06T15:04:37.857Z,55
2023-02-06T15:05:52.265Z,55
2023-02-06T15:07:08.034Z,55
2023-02-06T15:08:17.292Z,56
2023-02-06T15:09:25.115Z,55
2023-02-06T15:10:37.281Z,55
2023-02-06T15:11:46.552Z,56
2023-02-06T15:12:54.002Z,56
2023-02-06T15:14:02.318Z,56
2023-02-06T15:15:09.414Z,56
2023-02-06T15:16:20.937Z,56
2023-02-06T15:17:31.597Z,56
2023-02-06T15:18:40.401Z,56
2023-02-06T15:19:48.703Z,56
2023-02-06T15:20:56.178Z,56
2023-02-06T15:22:09.396Z,56
2023-02-06T15:23:18.529Z,57
2023-02-06T15:24:29.348Z,57
2023-02-06T15:25:49.724Z,57
2023-02-06T15:27:02.200Z,57
2023-02-06T15:28:17.082Z,57
2023-02-06T15:29:25.751Z,57
2023-02-06T15:30:35.454Z,57
2023-02-06T15:31:42.886Z,57
2023-02-06T15:32:51.230Z,57
2023-02-06T15:33:59.690Z,58
2023-02-06T15:35:08.184Z,58
2023-02-06T15:36:23.156Z,58
2023-02-06T15:37:34.699Z,58
2023-02-06T15:38:42.313Z,58
2023-02-06T15:39:50.937Z,58
2023-02-06T15:40:59.170Z,58
2023-02-06T15:42:06.735Z,58
2023-02-06T15:43:14.157Z,59
2023-02-06T15:44:21.325Z,59
2023-02-06T15:45:28.598Z,59
2023-02-06T15:46:38.977Z,59
2023-02-06T15:47:47.234Z,59
2023-02-06T15:48:55.102Z,59
2023-02-06T15:50:02.420Z,59
2023-02-06T15:51:10.701Z,59
2023-02-06T15:52:26.054Z,59
2023-02-06T15:53:39.526Z,59
2023-02-06T15:54:48.865Z,59
2023-02-06T15:55:56.502Z,60
2023-02-06T15:57:04.577Z,60
2023-02-06T15:58:12.685Z,60
2023-02-06T15:59:20.978Z,60
2023-02-06T16:00:28.585Z,60
2023-02-06T16:01:37.452Z,60
2023-02-06T16:02:45.929Z,60
2023-02-06T16:03:53.684Z,60
2023-02-06T16:05:01.245Z,60
2023-02-06T16:06:09.063Z,60
2023-02-06T16:07:19.909Z,61
2023-02-06T16:08:29.774Z,60
2023-02-06T16:09:40.282Z,60
2023-02-06T16:10:48.401Z,61
2023-02-06T16:12:01.074Z,61
2023-02-06T16:13:10.365Z,61
2023-02-06T16:14:18.442Z,61
2023-02-06T16:15:37.625Z,61
2023-02-06T16:16:46.502Z,61
2023-02-06T16:18:01.254Z,61
2023-02-06T16:19:18.878Z,61
2023-02-06T16:20:33.491Z,62
2023-02-06T16:21:42.050Z,62
2023-02-06T16:22:50.973Z,62
2023-02-06T16:24:00.791Z,62
2023-02-06T16:25:08.250Z,62
2023-02-06T16:26:26.296Z,62
2023-02-06T16:27:38.041Z,62
2023-02-06T16:28:45.083Z,62
2023-02-06T16:30:01.408Z,62
2023-02-06T16:31:10.346Z,63
2023-02-06T16:32:18.474Z,63
2023-02-06T16:33:26.825Z,63
2023-02-06T16:34:37.257Z,63
2023-02-06T16:35:44.596Z,63
2023-02-06T16:36:52.845Z,63
2023-02-06T16:38:00.772Z,63
2023-02-06T16:39:09.979Z,63
2023-02-06T16:40:18.659Z,63
2023-02-06T16:41:26.068Z,63
2023-02-06T16:42:37.479Z,63
2023-02-06T16:43:47.892Z,64